sensor_id;sensor_type;location;lat;lon;timestamp;pressure;altitude;pressure_sealevel;temperature;humidity
11936;BME280;6027;48.576;9.180;2023-03-22T00:00:49;96710.84;;;11.22;86.42
11936;BME280;6027;48.576;9.180;2023-03-22T00:03:15;96713.69;;;11.20;86.10
11936;BME280;6027;48.576;9.180;2023-03-22T00:05:41;96713.00;;;11.12;86.22
11936;BME280;6027;48.576;9.180;2023-03-22T00:08:06;96715.66;;;11.12;86.17
11936;BME280;6027;48.576;9.180;2023-03-22T00:10:33;96715.03;;;11.10;85.88
11936;BME280;6027;48.576;9.180;2023-03-22T00:13:00;96715.03;;;11.10;85.77
11936;BME280;6027;48.576;9.180;2023-03-22T00:15:26;96712.56;;;11.08;85.98
11936;BME280;6027;48.576;9.180;2023-03-22T00:17:54;96716.84;;;11.09;85.72
11936;BME280;6027;48.576;9.180;2023-03-22T00:20:20;96718.69;;;11.08;84.84
11936;BME280;6027;48.576;9.180;2023-03-22T00:22:48;96720.63;;;11.00;84.50
11936;BME280;6027;48.576;9.180;2023-03-22T00:25:14;96714.91;;;10.96;84.45
11936;BME280;6027;48.576;9.180;2023-03-22T00:27:39;96723.97;;;10.87;84.53
11936;BME280;6027;48.576;9.180;2023-03-22T00:30:06;96711.91;;;10.85;84.42
11936;BME280;6027;48.576;9.180;2023-03-22T00:32:35;96715.00;;;10.88;84.11
11936;BME280;6027;48.576;9.180;2023-03-22T00:35:02;96710.72;;;10.87;83.62
11936;BME280;6027;48.576;9.180;2023-03-22T00:37:27;96712.72;;;10.85;83.65
11936;BME280;6027;48.576;9.180;2023-03-22T00:40:02;96710.81;;;10.79;83.86
11936;BME280;6027;48.576;9.180;2023-03-22T00:42:29;96710.22;;;10.77;84.42
11936;BME280;6027;48.576;9.180;2023-03-22T00:44:55;96694.06;;;10.72;83.96
11936;BME280;6027;48.576;9.180;2023-03-22T00:47:21;96701.81;;;10.73;83.53
11936;BME280;6027;48.576;9.180;2023-03-22T00:49:47;96698.09;;;10.68;83.33
11936;BME280;6027;48.576;9.180;2023-03-22T00:52:13;96692.97;;;10.66;83.26
11936;BME280;6027;48.576;9.180;2023-03-22T00:54:38;96691.50;;;10.64;83.35
11936;BME280;6027;48.576;9.180;2023-03-22T00:57:03;96683.13;;;10.60;83.19
11936;BME280;6027;48.576;9.180;2023-03-22T00:59:29;96681.59;;;10.51;83.98
11936;BME280;6027;48.576;9.180;2023-03-22T01:01:54;96686.34;;;10.41;84.98
11936;BME280;6027;48.576;9.180;2023-03-22T01:04:22;96677.34;;;10.35;85.21
11936;BME280;6027;48.576;9.180;2023-03-22T01:06:50;96681.88;;;10.42;85.25
11936;BME280;6027;48.576;9.180;2023-03-22T01:09:16;96681.53;;;10.45;85.02
11936;BME280;6027;48.576;9.180;2023-03-22T01:11:42;96680.47;;;10.39;85.02
11936;BME280;6027;48.576;9.180;2023-03-22T01:14:08;96673.88;;;10.35;85.07
11936;BME280;6027;48.576;9.180;2023-03-22T01:16:35;96670.97;;;10.30;84.83
11936;BME280;6027;48.576;9.180;2023-03-22T01:19:01;96674.97;;;10.26;85.27
11936;BME280;6027;48.576;9.180;2023-03-22T01:21:26;96676.16;;;10.23;85.39
11936;BME280;6027;48.576;9.180;2023-03-22T01:23:51;96655.38;;;10.05;86.01
11936;BME280;6027;48.576;9.180;2023-03-22T01:26:17;96663.13;;;10.07;86.39
11936;BME280;6027;48.576;9.180;2023-03-22T01:28:43;96660.84;;;10.04;86.07
11936;BME280;6027;48.576;9.180;2023-03-22T01:31:08;96656.81;;;10.08;86.01
11936;BME280;6027;48.576;9.180;2023-03-22T01:33:33;96658.94;;;9.98;86.21
11936;BME280;6027;48.576;9.180;2023-03-22T01:35:59;96656.22;;;9.91;86.88
11936;BME280;6027;48.576;9.180;2023-03-22T01:38:25;96651.56;;;9.93;86.58
11936;BME280;6027;48.576;9.180;2023-03-22T01:40:50;96642.81;;;9.93;86.37
11936;BME280;6027;48.576;9.180;2023-03-22T01:43:16;96648.44;;;9.90;86.56
11936;BME280;6027;48.576;9.180;2023-03-22T01:48:25;96645.81;;;9.60;88.58
11936;BME280;6027;48.576;9.180;2023-03-22T01:51:03;96646.19;;;9.57;89.33
11936;BME280;6027;48.576;9.180;2023-03-22T01:53:34;96641.44;;;9.53;88.65
11936;BME280;6027;48.576;9.180;2023-03-22T01:56:01;96631.50;;;9.55;87.83
11936;BME280;6027;48.576;9.180;2023-03-22T01:58:27;96638.16;;;9.51;87.83
11936;BME280;6027;48.576;9.180;2023-03-22T02:00:53;96647.25;;;9.48;87.69
11936;BME280;6027;48.576;9.180;2023-03-22T02:03:27;96632.56;;;9.46;87.63
11936;BME280;6027;48.576;9.180;2023-03-22T02:05:55;96635.78;;;9.41;87.38
11936;BME280;6027;48.576;9.180;2023-03-22T02:08:21;96625.41;;;9.40;88.00
11936;BME280;6027;48.576;9.180;2023-03-22T02:10:46;96624.09;;;9.35;88.16
11936;BME280;6027;48.576;9.180;2023-03-22T02:16:53;96631.91;;;9.29;88.75
11936;BME280;6027;48.576;9.180;2023-03-22T02:44:32;96608.94;;;9.00;90.81
11936;BME280;6027;48.576;9.180;2023-03-22T02:49:45;96610.44;;;8.80;91.88
11936;BME280;6027;48.576;9.180;2023-03-22T02:52:16;96612.88;;;8.81;92.48
11936;BME280;6027;48.576;9.180;2023-03-22T02:55:43;96609.34;;;8.66;92.09
11936;BME280;6027;48.576;9.180;2023-03-22T03:00:24;96614.59;;;8.74;91.80
11936;BME280;6027;48.576;9.180;2023-03-22T03:02:55;96607.38;;;8.68;91.63
11936;BME280;6027;48.576;9.180;2023-03-22T03:05:24;96612.06;;;8.58;91.94
11936;BME280;6027;48.576;9.180;2023-03-22T03:07:57;96610.25;;;8.58;92.72
11936;BME280;6027;48.576;9.180;2023-03-22T03:10:25;96611.72;;;8.61;92.19
11936;BME280;6027;48.576;9.180;2023-03-22T03:12:51;96602.50;;;8.57;92.74
11936;BME280;6027;48.576;9.180;2023-03-22T03:15:19;96600.22;;;8.54;92.69
11936;BME280;6027;48.576;9.180;2023-03-22T03:18:08;96607.00;;;8.48;93.11
11936;BME280;6027;48.576;9.180;2023-03-22T03:36:19;96621.94;;;8.33;93.64
11936;BME280;6027;48.576;9.180;2023-03-22T03:38:48;96622.78;;;8.34;93.81
11936;BME280;6027;48.576;9.180;2023-03-22T03:41:19;96617.16;;;8.28;93.55
11936;BME280;6027;48.576;9.180;2023-03-22T03:43:47;96627.72;;;8.28;93.42
11936;BME280;6027;48.576;9.180;2023-03-22T03:46:13;96628.25;;;8.24;93.25
11936;BME280;6027;48.576;9.180;2023-03-22T03:48:41;96624.47;;;8.26;94.38
11936;BME280;6027;48.576;9.180;2023-03-22T03:51:09;96631.41;;;8.19;94.72
11936;BME280;6027;48.576;9.180;2023-03-22T03:53:35;96635.22;;;8.17;95.22
11936;BME280;6027;48.576;9.180;2023-03-22T03:56:00;96631.78;;;8.08;96.23
11936;BME280;6027;48.576;9.180;2023-03-22T03:58:26;96634.78;;;8.05;97.04
11936;BME280;6027;48.576;9.180;2023-03-22T04:00:51;96638.06;;;8.07;96.71
11936;BME280;6027;48.576;9.180;2023-03-22T04:03:17;96640.41;;;8.02;95.88
11936;BME280;6027;48.576;9.180;2023-03-22T04:05:42;96641.56;;;8.00;96.55
11936;BME280;6027;48.576;9.180;2023-03-22T04:08:08;96650.78;;;7.95;97.52
11936;BME280;6027;48.576;9.180;2023-03-22T04:10:34;96637.28;;;7.98;97.15
11936;BME280;6027;48.576;9.180;2023-03-22T04:12:59;96639.09;;;7.98;95.80
11936;BME280;6027;48.576;9.180;2023-03-22T04:15:25;96641.41;;;7.93;96.27
11936;BME280;6027;48.576;9.180;2023-03-22T04:17:50;96635.84;;;7.88;97.94
11936;BME280;6027;48.576;9.180;2023-03-22T04:20:16;96640.81;;;7.83;98.93
11936;BME280;6027;48.576;9.180;2023-03-22T04:22:42;96631.91;;;7.84;98.55
11936;BME280;6027;48.576;9.180;2023-03-22T04:25:12;96636.69;;;7.80;98.81
11936;BME280;6027;48.576;9.180;2023-03-22T04:27:43;96640.97;;;7.81;97.93
11936;BME280;6027;48.576;9.180;2023-03-22T04:30:11;96633.97;;;7.66;99.21
11936;BME280;6027;48.576;9.180;2023-03-22T04:32:44;96624.53;;;7.71;99.31
11936;BME280;6027;48.576;9.180;2023-03-22T04:35:10;96631.97;;;7.68;99.10
11936;BME280;6027;48.576;9.180;2023-03-22T04:37:35;96617.34;;;7.57;100.00
11936;BME280;6027;48.576;9.180;2023-03-22T04:40:01;96624.25;;;7.66;100.00
11936;BME280;6027;48.576;9.180;2023-03-22T04:42:31;96619.75;;;7.75;100.00
11936;BME280;6027;48.576;9.180;2023-03-22T04:44:56;96631.44;;;7.72;100.00
11936;BME280;6027;48.576;9.180;2023-03-22T04:47:22;96625.41;;;7.63;100.00
11936;BME280;6027;48.576;9.180;2023-03-22T04:49:47;96616.34;;;7.66;100.00
11936;BME280;6027;48.576;9.180;2023-03-22T04:52:14;96628.22;;;7.54;100.00
11936;BME280;6027;48.576;9.180;2023-03-22T04:54:39;96629.19;;;7.61;100.00
11936;BME280;6027;48.576;9.180;2023-03-22T04:57:05;96625.41;;;7.63;100.00
11936;BME280;6027;48.576;9.180;2023-03-22T04:59:31;96624.75;;;7.61;100.00
11936;BME280;6027;48.576;9.180;2023-03-22T05:01:57;96624.25;;;7.58;100.00
11936;BME280;6027;48.576;9.180;2023-03-22T05:04:24;96619.47;;;7.53;100.00
11936;BME280;6027;48.576;9.180;2023-03-22T05:06:52;96615.41;;;7.43;100.00
11936;BME280;6027;48.576;9.180;2023-03-22T05:09:18;96607.34;;;7.44;100.00
11936;BME280;6027;48.576;9.180;2023-03-22T05:11:44;96613.31;;;7.30;100.00
11936;BME280;6027;48.576;9.180;2023-03-22T05:14:10;96608.06;;;7.14;100.00
11936;BME280;6027;48.576;9.180;2023-03-22T05:16:36;96602.78;;;7.14;100.00
11936;BME280;6027;48.576;9.180;2023-03-22T05:19:05;96600.84;;;7.08;100.00
11936;BME280;6027;48.576;9.180;2023-03-22T05:21:39;96611.38;;;7.08;100.00
11936;BME280;6027;48.576;9.180;2023-03-22T05:24:07;96602.97;;;6.96;100.00
11936;BME280;6027;48.576;9.180;2023-03-22T05:26:32;96599.03;;;7.00;100.00
11936;BME280;6027;48.576;9.180;2023-03-22T05:28:58;96598.53;;;7.05;100.00
11936;BME280;6027;48.576;9.180;2023-03-22T05:31:24;96599.38;;;7.05;100.00
11936;BME280;6027;48.576;9.180;2023-03-22T05:33:52;96598.88;;;7.02;100.00
11936;BME280;6027;48.576;9.180;2023-03-22T05:38:46;96604.50;;;6.90;100.00
11936;BME280;6027;48.576;9.180;2023-03-22T05:41:12;96599.88;;;6.92;100.00
11936;BME280;6027;48.576;9.180;2023-03-22T05:43:51;96604.97;;;6.86;100.00
11936;BME280;6027;48.576;9.180;2023-03-22T05:46:16;96599.19;;;6.99;100.00
11936;BME280;6027;48.576;9.180;2023-03-22T05:48:42;96597.88;;;7.03;100.00
11936;BME280;6027;48.576;9.180;2023-03-22T05:51:10;96590.00;;;7.03;100.00
11936;BME280;6027;48.576;9.180;2023-03-22T05:53:38;96592.94;;;7.00;100.00
11936;BME280;6027;48.576;9.180;2023-03-22T05:56:03;96580.13;;;7.05;100.00
11936;BME280;6027;48.576;9.180;2023-03-22T05:58:30;96584.56;;;7.04;100.00
11936;BME280;6027;48.576;9.180;2023-03-22T06:01:14;96582.75;;;7.05;100.00
11936;BME280;6027;48.576;9.180;2023-03-22T06:03:41;96582.59;;;7.06;100.00
11936;BME280;6027;48.576;9.180;2023-03-22T06:06:07;96589.16;;;6.94;100.00
11936;BME280;6027;48.576;9.180;2023-03-22T06:08:36;96591.31;;;6.99;100.00
11936;BME280;6027;48.576;9.180;2023-03-22T06:11:02;96587.03;;;6.98;100.00
11936;BME280;6027;48.576;9.180;2023-03-22T06:13:28;96588.53;;;6.92;100.00
11936;BME280;6027;48.576;9.180;2023-03-22T06:15:54;96591.78;;;6.94;100.00
11936;BME280;6027;48.576;9.180;2023-03-22T06:18:19;96587.84;;;6.98;100.00
11936;BME280;6027;48.576;9.180;2023-03-22T06:20:45;96592.78;;;6.93;100.00
11936;BME280;6027;48.576;9.180;2023-03-22T06:23:10;96580.28;;;6.95;100.00
11936;BME280;6027;48.576;9.180;2023-03-22T06:25:36;96589.16;;;7.02;100.00
11936;BME280;6027;48.576;9.180;2023-03-22T06:28:01;96592.78;;;7.09;100.00
11936;BME280;6027;48.576;9.180;2023-03-22T06:30:27;96587.53;;;7.09;100.00
11936;BME280;6027;48.576;9.180;2023-03-22T06:32:53;96593.44;;;7.11;100.00
11936;BME280;6027;48.576;9.180;2023-03-22T06:35:19;96593.59;;;7.10;100.00
11936;BME280;6027;48.576;9.180;2023-03-22T06:37:44;96602.31;;;7.10;100.00
11936;BME280;6027;48.576;9.180;2023-03-22T06:40:10;96609.22;;;7.19;100.00
11936;BME280;6027;48.576;9.180;2023-03-22T06:42:35;96606.41;;;7.21;100.00
11936;BME280;6027;48.576;9.180;2023-03-22T06:45:01;96616.13;;;7.28;100.00
11936;BME280;6027;48.576;9.180;2023-03-22T06:47:27;96617.06;;;7.36;100.00
11936;BME280;6027;48.576;9.180;2023-03-22T06:49:53;96612.44;;;7.46;100.00
11936;BME280;6027;48.576;9.180;2023-03-22T06:52:18;96620.47;;;7.52;100.00
11936;BME280;6027;48.576;9.180;2023-03-22T06:54:44;96614.19;;;7.61;100.00
11936;BME280;6027;48.576;9.180;2023-03-22T06:57:09;96622.25;;;7.68;100.00
11936;BME280;6027;48.576;9.180;2023-03-22T06:59:35;96619.22;;;7.87;100.00
11936;BME280;6027;48.576;9.180;2023-03-22T07:02:01;96621.47;;;7.90;100.00
11936;BME280;6027;48.576;9.180;2023-03-22T07:04:26;96618.16;;;8.05;100.00
11936;BME280;6027;48.576;9.180;2023-03-22T07:06:53;96617.44;;;8.11;100.00
11936;BME280;6027;48.576;9.180;2023-03-22T07:09:18;96614.28;;;8.15;100.00
11936;BME280;6027;48.576;9.180;2023-03-22T07:11:44;96618.56;;;8.16;100.00
11936;BME280;6027;48.576;9.180;2023-03-22T07:14:09;96607.81;;;8.26;100.00
11936;BME280;6027;48.576;9.180;2023-03-22T07:16:35;96604.78;;;8.37;100.00
11936;BME280;6027;48.576;9.180;2023-03-22T07:19:01;96611.41;;;8.33;100.00
11936;BME280;6027;48.576;9.180;2023-03-22T07:21:26;96612.66;;;8.45;100.00
11936;BME280;6027;48.576;9.180;2023-03-22T07:23:51;96602.69;;;8.55;100.00
11936;BME280;6027;48.576;9.180;2023-03-22T07:26:17;96610.44;;;8.57;100.00
11936;BME280;6027;48.576;9.180;2023-03-22T07:28:43;96608.84;;;8.71;100.00
11936;BME280;6027;48.576;9.180;2023-03-22T07:31:10;96612.41;;;8.78;100.00
11936;BME280;6027;48.576;9.180;2023-03-22T07:33:37;96616.72;;;8.93;100.00
11936;BME280;6027;48.576;9.180;2023-03-22T07:36:05;96613.94;;;9.10;100.00
11936;BME280;6027;48.576;9.180;2023-03-22T07:38:31;96609.59;;;9.17;97.03
11936;BME280;6027;48.576;9.180;2023-03-22T07:40:56;96619.72;;;9.28;96.57
11936;BME280;6027;48.576;9.180;2023-03-22T07:43:22;96620.53;;;9.43;94.53
11936;BME280;6027;48.576;9.180;2023-03-22T07:45:48;96610.81;;;9.58;94.63
11936;BME280;6027;48.576;9.180;2023-03-22T07:48:15;96620.56;;;9.73;92.95
11936;BME280;6027;48.576;9.180;2023-03-22T07:50:41;96613.97;;;9.83;93.75
11936;BME280;6027;48.576;9.180;2023-03-22T07:53:07;96618.81;;;9.94;92.59
11936;BME280;6027;48.576;9.180;2023-03-22T07:55:33;96615.22;;;10.02;89.60
11936;BME280;6027;48.576;9.180;2023-03-22T07:57:59;96615.22;;;10.17;89.28
11936;BME280;6027;48.576;9.180;2023-03-22T08:00:24;96622.47;;;10.44;83.28
11936;BME280;6027;48.576;9.180;2023-03-22T08:02:50;96615.50;;;10.58;83.22
11936;BME280;6027;48.576;9.180;2023-03-22T08:05:15;96605.16;;;10.63;84.01
11936;BME280;6027;48.576;9.180;2023-03-22T08:07:41;96621.22;;;10.83;81.21
11936;BME280;6027;48.576;9.180;2023-03-22T08:10:07;96618.00;;;10.87;77.13
11936;BME280;6027;48.576;9.180;2023-03-22T08:12:32;96618.13;;;11.00;76.70
11936;BME280;6027;48.576;9.180;2023-03-22T08:14:58;96619.16;;;11.27;75.97
11936;BME280;6027;48.576;9.180;2023-03-22T08:17:23;96620.69;;;11.43;71.25
11936;BME280;6027;48.576;9.180;2023-03-22T08:19:50;96621.78;;;11.55;70.75
11936;BME280;6027;48.576;9.180;2023-03-22T08:22:16;96615.53;;;11.63;71.13
11936;BME280;6027;48.576;9.180;2023-03-22T08:24:41;96620.34;;;11.81;71.01
11936;BME280;6027;48.576;9.180;2023-03-22T08:27:07;96621.22;;;11.88;70.43
11936;BME280;6027;48.576;9.180;2023-03-22T08:29:32;96631.03;;;11.94;71.97
11936;BME280;6027;48.576;9.180;2023-03-22T08:31:58;96625.78;;;12.07;69.27
11936;BME280;6027;48.576;9.180;2023-03-22T08:34:28;96615.34;;;11.99;70.17
11936;BME280;6027;48.576;9.180;2023-03-22T08:36:53;96630.91;;;12.08;69.67
11936;BME280;6027;48.576;9.180;2023-03-22T08:39:18;96625.38;;;12.03;69.23
11936;BME280;6027;48.576;9.180;2023-03-22T08:41:45;96621.03;;;11.96;69.20
11936;BME280;6027;48.576;9.180;2023-03-22T08:44:10;96629.06;;;12.09;69.52
11936;BME280;6027;48.576;9.180;2023-03-22T08:46:36;96616.03;;;12.21;68.28
11936;BME280;6027;48.576;9.180;2023-03-22T08:49:01;96625.69;;;12.35;69.38
11936;BME280;6027;48.576;9.180;2023-03-22T08:51:27;96615.72;;;12.43;68.24
11936;BME280;6027;48.576;9.180;2023-03-22T08:53:54;96618.13;;;12.32;68.38
11936;BME280;6027;48.576;9.180;2023-03-22T08:56:23;96618.16;;;12.38;67.08
11936;BME280;6027;48.576;9.180;2023-03-22T08:58:49;96617.78;;;12.55;70.34
11936;BME280;6027;48.576;9.180;2023-03-22T09:01:15;96611.09;;;12.85;69.88
11936;BME280;6027;48.576;9.180;2023-03-22T09:03:41;96603.75;;;12.87;69.60
11936;BME280;6027;48.576;9.180;2023-03-22T09:06:08;96606.00;;;12.97;69.14
11936;BME280;6027;48.576;9.180;2023-03-22T09:08:34;96599.66;;;12.98;68.25
11936;BME280;6027;48.576;9.180;2023-03-22T09:11:01;96587.59;;;13.28;67.70
11936;BME280;6027;48.576;9.180;2023-03-22T09:15:54;96597.00;;;13.51;67.00
11936;BME280;6027;48.576;9.180;2023-03-22T09:18:20;96594.09;;;13.72;67.97
11936;BME280;6027;48.576;9.180;2023-03-22T09:20:46;96587.69;;;13.86;65.25
11936;BME280;6027;48.576;9.180;2023-03-22T09:23:12;96586.44;;;13.95;67.12
11936;BME280;6027;48.576;9.180;2023-03-22T09:25:42;96598.88;;;14.08;65.64
11936;BME280;6027;48.576;9.180;2023-03-22T09:28:08;96595.19;;;14.09;65.04
11936;BME280;6027;48.576;9.180;2023-03-22T09:30:34;96593.97;;;14.11;65.08
11936;BME280;6027;48.576;9.180;2023-03-22T09:33:01;96588.22;;;14.14;65.71
11936;BME280;6027;48.576;9.180;2023-03-22T09:35:26;96586.50;;;14.27;63.25
11936;BME280;6027;48.576;9.180;2023-03-22T09:37:52;96586.06;;;14.36;61.87
11936;BME280;6027;48.576;9.180;2023-03-22T09:40:19;96580.97;;;14.41;64.52
11936;BME280;6027;48.576;9.180;2023-03-22T09:42:47;96572.09;;;14.47;65.79
11936;BME280;6027;48.576;9.180;2023-03-22T09:45:35;96566.97;;;14.46;64.53
11936;BME280;6027;48.576;9.180;2023-03-22T09:48:27;96560.69;;;14.40;62.88
11936;BME280;6027;48.576;9.180;2023-03-22T09:50:54;96563.97;;;14.29;63.05
11936;BME280;6027;48.576;9.180;2023-03-22T09:53:23;96563.13;;;14.42;63.66
11936;BME280;6027;48.576;9.180;2023-03-22T09:56:04;96562.47;;;14.46;63.49
11936;BME280;6027;48.576;9.180;2023-03-22T10:07:17;96552.25;;;14.75;61.15
11936;BME280;6027;48.576;9.180;2023-03-22T10:12:44;96538.00;;;14.88;58.30
11936;BME280;6027;48.576;9.180;2023-03-22T10:15:17;96541.75;;;15.05;57.39
11936;BME280;6027;48.576;9.180;2023-03-22T10:17:51;96531.78;;;15.00;59.44
11936;BME280;6027;48.576;9.180;2023-03-22T10:20:31;96524.47;;;15.14;57.85
11936;BME280;6027;48.576;9.180;2023-03-22T10:23:03;96521.88;;;15.26;57.07
11936;BME280;6027;48.576;9.180;2023-03-22T10:25:36;96517.88;;;15.16;57.55
11936;BME280;6027;48.576;9.180;2023-03-22T10:28:19;96513.16;;;15.18;55.25
11936;BME280;6027;48.576;9.180;2023-03-22T10:30:49;96510.91;;;15.15;54.83
11936;BME280;6027;48.576;9.180;2023-03-22T10:33:57;96505.38;;;15.17;54.42
11936;BME280;6027;48.576;9.180;2023-03-22T10:36:26;96510.97;;;15.09;55.55
11936;BME280;6027;48.576;9.180;2023-03-22T10:38:59;96508.25;;;15.15;53.50
11936;BME280;6027;48.576;9.180;2023-03-22T10:41:28;96504.81;;;15.08;54.84
11936;BME280;6027;48.576;9.180;2023-03-22T10:43:59;96501.34;;;15.26;53.79
11936;BME280;6027;48.576;9.180;2023-03-22T10:46:30;96502.63;;;15.42;56.12
11936;BME280;6027;48.576;9.180;2023-03-22T10:48:59;96498.41;;;15.52;52.73
11936;BME280;6027;48.576;9.180;2023-03-22T10:51:28;96507.38;;;15.40;52.65
11936;BME280;6027;48.576;9.180;2023-03-22T10:53:56;96491.09;;;15.66;54.98
11936;BME280;6027;48.576;9.180;2023-03-22T10:56:24;96483.53;;;15.81;51.48
11936;BME280;6027;48.576;9.180;2023-03-22T10:58:50;96489.88;;;15.99;53.93
11936;BME280;6027;48.576;9.180;2023-03-22T11:01:30;96485.00;;;16.26;51.20
11936;BME280;6027;48.576;9.180;2023-03-22T11:06:29;96478.03;;;16.36;50.34
11936;BME280;6027;48.576;9.180;2023-03-22T11:09:10;96480.69;;;16.54;49.11
11936;BME280;6027;48.576;9.180;2023-03-22T11:11:56;96482.81;;;16.64;47.09
11936;BME280;6027;48.576;9.180;2023-03-22T11:14:42;96477.94;;;16.73;49.03
11936;BME280;6027;48.576;9.180;2023-03-22T11:17:11;96478.91;;;16.90;50.29
11936;BME280;6027;48.576;9.180;2023-03-22T11:20:02;96482.47;;;16.84;47.12
11936;BME280;6027;48.576;9.180;2023-03-22T11:22:33;96489.16;;;16.51;45.09
11936;BME280;6027;48.576;9.180;2023-03-22T11:24:59;96479.72;;;16.49;47.53
11936;BME280;6027;48.576;9.180;2023-03-22T11:27:27;96466.16;;;16.62;48.18
11936;BME280;6027;48.576;9.180;2023-03-22T11:30:43;96464.31;;;16.74;46.50
11936;BME280;6027;48.576;9.180;2023-03-22T11:32:44;96468.31;;;16.72;44.42
11936;BME280;6027;48.576;9.180;2023-03-22T11:35:22;96470.41;;;16.93;45.99
11936;BME280;6027;48.576;9.180;2023-03-22T11:37:52;96461.56;;;16.92;44.88
11936;BME280;6027;48.576;9.180;2023-03-22T11:40:23;96457.97;;;17.10;44.84
11936;BME280;6027;48.576;9.180;2023-03-22T11:42:55;96459.81;;;17.21;43.58
11936;BME280;6027;48.576;9.180;2023-03-22T11:45:26;96462.25;;;17.23;43.55
11936;BME280;6027;48.576;9.180;2023-03-22T11:47:52;96463.31;;;17.22;43.24
11936;BME280;6027;48.576;9.180;2023-03-22T11:50:27;96449.81;;;17.29;42.75
11936;BME280;6027;48.576;9.180;2023-03-22T11:52:53;96445.47;;;17.39;43.96
11936;BME280;6027;48.576;9.180;2023-03-22T11:55:22;96442.19;;;17.60;43.00
11936;BME280;6027;48.576;9.180;2023-03-22T11:57:48;96448.09;;;17.63;44.37
11936;BME280;6027;48.576;9.180;2023-03-22T12:00:22;96430.06;;;17.58;43.50
11936;BME280;6027;48.576;9.180;2023-03-22T12:05:32;96433.31;;;17.08;42.26
11936;BME280;6027;48.576;9.180;2023-03-22T12:10:48;96421.78;;;16.96;42.83
11936;BME280;6027;48.576;9.180;2023-03-22T12:13:24;96415.63;;;16.96;43.72
11936;BME280;6027;48.576;9.180;2023-03-22T12:15:57;96410.88;;;16.86;42.13
11936;BME280;6027;48.576;9.180;2023-03-22T12:18:31;96415.19;;;16.87;43.09
11936;BME280;6027;48.576;9.180;2023-03-22T12:21:00;96412.69;;;17.20;43.37
11936;BME280;6027;48.576;9.180;2023-03-22T12:23:31;96407.59;;;17.31;41.46
11936;BME280;6027;48.576;9.180;2023-03-22T12:26:15;96406.25;;;17.45;43.45
11936;BME280;6027;48.576;9.180;2023-03-22T12:29:04;96404.78;;;17.77;43.42
11936;BME280;6027;48.576;9.180;2023-03-22T12:31:35;96410.13;;;17.89;41.53
11936;BME280;6027;48.576;9.180;2023-03-22T12:34:06;96405.59;;;17.78;42.45
11936;BME280;6027;48.576;9.180;2023-03-22T12:36:41;96396.34;;;17.69;41.20
11936;BME280;6027;48.576;9.180;2023-03-22T12:39:24;96398.25;;;17.85;42.41
11936;BME280;6027;48.576;9.180;2023-03-22T12:41:53;96400.09;;;17.84;40.69
11936;BME280;6027;48.576;9.180;2023-03-22T12:44:29;96395.81;;;17.83;40.13
11936;BME280;6027;48.576;9.180;2023-03-22T12:47:00;96391.50;;;17.82;41.52
11936;BME280;6027;48.576;9.180;2023-03-22T12:49:34;96380.50;;;17.67;41.23
11936;BME280;6027;48.576;9.180;2023-03-22T12:57:20;96390.25;;;17.73;40.60
11936;BME280;6027;48.576;9.180;2023-03-22T12:59:49;96387.06;;;17.88;40.81
11936;BME280;6027;48.576;9.180;2023-03-22T13:02:27;96385.56;;;18.09;39.84
11936;BME280;6027;48.576;9.180;2023-03-22T13:05:05;96380.38;;;18.19;39.25
11936;BME280;6027;48.576;9.180;2023-03-22T13:07:59;96387.13;;;18.38;39.37
11936;BME280;6027;48.576;9.180;2023-03-22T13:18:38;96371.69;;;18.45;37.93
11936;BME280;6027;48.576;9.180;2023-03-22T13:26:27;96368.97;;;18.12;38.23
11936;BME280;6027;48.576;9.180;2023-03-22T13:31:59;96352.03;;;18.23;35.54
11936;BME280;6027;48.576;9.180;2023-03-22T13:34:46;96352.59;;;18.42;36.59
11936;BME280;6027;48.576;9.180;2023-03-22T13:37:23;96357.25;;;18.46;36.15
11936;BME280;6027;48.576;9.180;2023-03-22T13:39:56;96346.56;;;18.51;35.75
11936;BME280;6027;48.576;9.180;2023-03-22T13:42:34;96350.59;;;18.66;36.45
11936;BME280;6027;48.576;9.180;2023-03-22T13:45:01;96352.19;;;18.67;36.26
11936;BME280;6027;48.576;9.180;2023-03-22T13:47:36;96344.88;;;18.79;34.84
11936;BME280;6027;48.576;9.180;2023-03-22T13:50:14;96339.59;;;18.67;35.44
11936;BME280;6027;48.576;9.180;2023-03-22T13:52:45;96342.03;;;18.69;35.63
11936;BME280;6027;48.576;9.180;2023-03-22T13:55:36;96349.00;;;18.53;35.00
11936;BME280;6027;48.576;9.180;2023-03-22T13:58:03;96333.66;;;18.48;36.27
11936;BME280;6027;48.576;9.180;2023-03-22T14:03:00;96330.25;;;18.70;36.07
11936;BME280;6027;48.576;9.180;2023-03-22T14:05:30;96329.31;;;18.59;35.94
11936;BME280;6027;48.576;9.180;2023-03-22T14:07:59;96332.56;;;18.61;36.15
11936;BME280;6027;48.576;9.180;2023-03-22T14:10:43;96327.47;;;18.48;36.78
11936;BME280;6027;48.576;9.180;2023-03-22T14:13:16;96333.03;;;18.41;37.06
11936;BME280;6027;48.576;9.180;2023-03-22T14:15:52;96337.09;;;18.44;37.37
11936;BME280;6027;48.576;9.180;2023-03-22T14:18:28;96331.81;;;18.32;38.03
11936;BME280;6027;48.576;9.180;2023-03-22T14:20:58;96322.13;;;18.31;37.11
11936;BME280;6027;48.576;9.180;2023-03-22T14:23:36;96314.03;;;18.43;38.89
11936;BME280;6027;48.576;9.180;2023-03-22T14:26:33;96317.72;;;18.75;39.18
11936;BME280;6027;48.576;9.180;2023-03-22T14:31:39;96308.13;;;18.79;38.36
11936;BME280;6027;48.576;9.180;2023-03-22T14:34:07;96320.00;;;18.67;36.87
11936;BME280;6027;48.576;9.180;2023-03-22T14:36:37;96307.00;;;18.58;35.53
11936;BME280;6027;48.576;9.180;2023-03-22T14:39:33;96311.19;;;18.66;37.25
11936;BME280;6027;48.576;9.180;2023-03-22T14:44:51;96313.53;;;18.62;37.28
11936;BME280;6027;48.576;9.180;2023-03-22T14:47:20;96307.81;;;18.76;37.92
11936;BME280;6027;48.576;9.180;2023-03-22T14:49:50;96312.81;;;18.89;38.63
11936;BME280;6027;48.576;9.180;2023-03-22T14:52:29;96297.72;;;18.83;36.63
11936;BME280;6027;48.576;9.180;2023-03-22T14:54:59;96307.16;;;18.85;36.94
11936;BME280;6027;48.576;9.180;2023-03-22T14:57:31;96313.31;;;18.64;36.53
11936;BME280;6027;48.576;9.180;2023-03-22T14:59:58;96312.53;;;18.52;36.73
11936;BME280;6027;48.576;9.180;2023-03-22T15:02:52;96304.56;;;18.57;37.38
11936;BME280;6027;48.576;9.180;2023-03-22T15:05:21;96301.31;;;18.55;37.40
11936;BME280;6027;48.576;9.180;2023-03-22T15:07:51;96307.91;;;18.47;37.70
11936;BME280;6027;48.576;9.180;2023-03-22T15:10:27;96302.63;;;18.52;37.66